Time;durP1;ratioP1;P1;durP2;ratioP2;P2;SDS_P1;SDS_P2;PMS_P1;PMS_P2;Temp;Humidity;BMP_temperature;BMP_pressure;BME280_temperature;BME280_humidity;BME280_pressure;Samples;Min_cycle;Max_cycle;Signal;HPM_P1;HPM_P2
2022/10/12 00:01:11;;;;;;;12.32;2.28;;;;;;;16.06;100.00;98905.97;6146814;23;20336;-89
2022/10/12 00:03:37;;;;;;;13.88;2.70;;;;;;;16.19;100.00;98907.34;6146376;23;20097;-89
2022/10/12 00:06:04;;;;;;;9.95;2.28;;;;;;;16.29;100.00;98905.31;6124045;23;20029;-89
2022/10/12 00:08:30;;;;;;;15.23;2.90;;;;;;;16.43;100.00;98911.00;6147951;23;20005;-90
2022/10/12 00:10:55;;;;;;;11.27;2.72;;;;;;;16.51;100.00;98909.00;6150522;23;20092;-90
2022/10/12 00:13:21;;;;;;;9.55;2.40;;;;;;;16.35;100.00;98907.75;6151724;23;20006;-89
2022/10/12 00:15:47;;;;;;;17.05;2.63;;;;;;;16.28;100.00;98907.06;6151808;23;20005;-88
2022/10/12 00:18:12;;;;;;;11.73;2.40;;;;;;;16.59;100.00;98903.50;6155482;23;20028;-90
2022/10/12 00:20:37;;;;;;;16.73;3.45;;;;;;;16.67;100.00;98896.22;6155324;23;20020;-90
2022/10/12 00:23:03;;;;;;;11.55;2.55;;;;;;;16.18;100.00;98903.84;6150511;23;20071;-90
2022/10/12 00:25:29;;;;;;;7.40;2.50;;;;;;;17.01;100.00;98903.06;6149821;23;20002;-89
2022/10/12 00:27:54;;;;;;;9.77;2.70;;;;;;;17.42;100.00;98905.19;6125758;23;20014;-90
2022/10/12 00:30:19;;;;;;;12.00;2.70;;;;;;;16.54;100.00;98898.38;6149311;23;20070;-89
2022/10/12 00:32:45;;;;;;;13.57;2.95;;;;;;;16.86;100.00;98900.91;6154641;23;20732;-89
2022/10/12 00:35:10;;;;;;;13.32;3.30;;;;;;;17.25;100.00;98897.88;6155674;23;20009;-89
2022/10/12 00:37:36;;;;;;;16.13;2.88;;;;;;;16.71;100.00;98903.13;6155732;23;20040;-89
2022/10/12 00:40:02;;;;;;;15.07;2.75;;;;;;;16.88;100.00;98892.06;6157220;23;20005;-90
2022/10/12 00:42:27;;;;;;;21.20;4.15;;;;;;;16.86;100.00;98896.47;6159544;23;20447;-91
2022/10/12 00:44:53;;;;;;;13.02;2.47;;;;;;;16.84;100.00;98898.31;6137167;23;20036;-91
2022/10/12 00:47:30;;;;;;;13.43;2.42;;;;;;;17.02;100.00;98889.00;6167361;23;20029;-91
2022/10/12 00:50:04;;;;;;;11.75;2.40;;;;;;;16.56;100.00;98887.78;6166793;23;20036;-90
2022/10/12 00:52:48;;;;;;;11.80;2.50;;;;;;;16.96;100.00;98875.16;6166329;23;20018;-91
2022/10/12 00:55:18;;;;;;;11.93;2.50;;;;;;;22.52;96.11;98876.25;6136077;23;19998;-91
2022/10/12 00:57:44;;;;;;;14.35;2.60;;;;;;;23.86;73.83;98877.22;6167361;23;20001;-90
2022/10/12 01:00:10;;;;;;;12.35;2.55;;;;;;;17.87;89.71;98885.16;6161083;23;20103;-91
2022/10/12 01:02:39;;;;;;;14.23;3.08;;;;;;;22.55;78.02;98882.25;6160533;23;20009;-90
2022/10/12 01:05:06;;;;;;;10.75;2.60;;;;;;;22.72;80.57;98872.47;6163261;23;20061;-91
2022/10/12 01:07:32;;;;;;;10.52;2.40;;;;;;;18.50;91.25;98874.03;6165328;23;20051;-91
2022/10/12 01:09:57;;;;;;;10.55;1.80;;;;;;;18.58;95.79;98877.22;6166953;23;20331;-91
2022/10/12 01:12:24;;;;;;;7.22;2.10;;;;;;;18.96;96.23;98871.31;6164778;23;20041;-91
2022/10/12 01:14:49;;;;;;;10.68;2.60;;;;;;;21.10;82.33;98860.72;6176033;23;20509;-91
2022/10/12 01:17:46;;;;;;;10.85;2.45;;;;;;;19.98;88.17;98862.47;6189083;23;20009;-91
2022/10/12 01:20:29;;;;;;;13.50;2.60;;;;;;;23.35;77.00;98864.34;6164947;23;20068;-91
2022/10/12 01:23:16;;;;;;;11.37;2.57;;;;;;;23.72;72.14;98861.25;6188108;23;20098;-91
2022/10/12 01:26:09;;;;;;;14.20;2.95;;;;;;;22.71;74.84;98860.13;6163817;23;20069;-92
2022/10/12 01:29:05;;;;;;;10.10;2.20;;;;;;;24.04;70.56;98858.41;6164398;23;20012;-92
2022/10/12 01:31:44;;;;;;;11.43;2.55;;;;;;;20.75;70.01;98858.88;6179583;23;20005;-91
2022/10/12 01:34:52;;;;;;;10.38;2.22;;;;;;;22.16;78.31;98860.44;6153011;23;20186;-91
2022/10/12 01:37:28;;;;;;;13.93;2.50;;;;;;;22.92;74.89;98850.91;6175969;23;20010;-91
2022/10/12 01:39:58;;;;;;;13.07;2.40;;;;;;;23.58;72.97;98839.94;6150928;23;20099;-92
2022/10/12 01:42:31;;;;;;;12.90;2.60;;;;;;;22.21;78.86;98832.75;6175975;23;20600;-92
2022/10/12 01:45:06;;;;;;;13.10;2.58;;;;;;;24.32;70.03;98838.00;6174419;23;20052;-90
2022/10/12 01:47:34;;;;;;;11.15;2.38;;;;;;;23.16;73.22;98824.69;6152053;23;20108;-91
2022/10/12 01:50:03;;;;;;;12.30;2.40;;;;;;;23.52;71.90;98820.75;6126759;23;20005;-92
2022/10/12 01:52:52;;;;;;;11.15;2.45;;;;;;;24.99;67.02;98829.19;6175571;23;20032;-91
2022/10/12 01:55:53;;;;;;;12.23;2.40;;;;;;;25.96;62.16;98819.00;6174941;23;20017;-91
2022/10/12 01:58:36;;;;;;;11.88;2.63;;;;;;;25.62;62.48;98816.88;6088254;23;20376;-91
2022/10/12 02:01:28;;;;;;;11.63;2.38;;;;;;;25.46;61.66;98800.25;6128868;22;20043;-93
2022/10/12 02:04:07;;;;;;;9.02;2.10;;;;;;;24.87;65.95;98791.72;6240338;22;20008;-94
2022/10/12 02:06:42;;;;;;;13.60;2.20;;;;;;;25.48;62.73;98801.81;6247224;22;19999;-93
2022/10/12 02:09:28;;;;;;;16.80;2.70;;;;;;;23.57;69.12;98785.84;6247862;22;20030;-94
2022/10/12 02:11:57;;;;;;;13.85;2.30;;;;;;;23.92;67.87;98780.13;6247970;22;20015;-94
2022/10/12 02:14:29;;;;;;;11.80;2.35;;;;;;;23.97;66.92;98766.53;6273366;22;20015;-93
2022/10/12 02:16:59;;;;;;;14.73;2.50;;;;;;;23.52;69.72;98770.16;6246865;22;20003;-93
2022/10/12 02:19:28;;;;;;;13.27;2.50;;;;;;;23.46;69.34;98759.88;6247949;22;20429;-93
2022/10/12 02:21:59;;;;;;;11.50;2.50;;;;;;;23.85;69.69;98753.03;6247095;22;20004;-95
2022/10/12 02:24:29;;;;;;;13.05;2.63;;;;;;;22.07;75.41;98738.75;6248197;22;20012;-95
2022/10/12 02:26:55;;;;;;;15.63;2.13;;;;;;;22.43;74.34;98729.66;6249134;22;20047;-94
2022/10/12 02:29:28;;;;;;;10.88;2.20;;;;;;;16.32;100.00;98724.47;6247843;22;20414;-94
2022/10/12 02:32:31;;;;;;;10.33;2.10;;;;;;;22.87;81.07;98732.44;6248705;22;20011;-93
2022/10/12 02:35:06;;;;;;;10.27;2.53;;;;;;;16.25;100.00;98733.47;6246850;22;20782;-94
2022/10/12 02:37:57;;;;;;;11.93;2.30;;;;;;;18.50;94.00;98732.25;6246413;22;20311;-93
2022/10/12 02:40:36;;;;;;;9.63;2.35;;;;;;;23.30;81.81;98732.53;6220022;22;20043;-92
2022/10/12 02:43:09;;;;;;;12.55;2.78;;;;;;;19.80;97.04;98734.50;6273535;22;19999;-93
2022/10/12 02:45:36;;;;;;;10.90;2.20;;;;;;;18.60;97.49;98738.00;6274185;22;20037;-94
2022/10/12 02:48:03;;;;;;;14.30;2.30;;;;;;;17.97;100.00;98744.09;6246217;22;20015;-93
2022/10/12 02:50:30;;;;;;;15.02;2.50;;;;;;;17.33;100.00;98736.84;6248440;22;20322;-93
2022/10/12 02:52:57;;;;;;;10.65;2.58;;;;;;;16.49;100.00;98726.56;6248879;22;20014;-95
2022/10/12 02:55:22;;;;;;;15.90;2.75;;;;;;;16.43;100.00;98710.94;6249099;22;20743;-93
2022/10/12 02:57:48;;;;;;;12.15;2.90;;;;;;;17.15;100.00;98712.88;6250921;22;20094;-93
2022/10/12 03:00:14;;;;;;;17.25;2.78;;;;;;;16.15;100.00;98709.22;6248942;22;20345;-94
2022/10/12 03:02:39;;;;;;;12.38;3.03;;;;;;;15.90;100.00;98696.00;6246898;22;20008;-95
2022/10/12 03:05:05;;;;;;;12.50;2.53;;;;;;;16.71;100.00;98691.56;6247610;22;20011;-92
2022/10/12 03:07:31;;;;;;;13.15;2.90;;;;;;;15.94;100.00;98689.75;6247873;22;20497;-94
2022/10/12 03:09:57;;;;;;;13.63;2.70;;;;;;;17.98;100.00;98692.16;6247847;22;20049;-94
2022/10/12 03:12:22;;;;;;;13.00;2.95;;;;;;;17.03;100.00;98685.19;6248325;22;20345;-94
2022/10/12 03:14:48;;;;;;;14.00;3.58;;;;;;;16.55;100.00;98688.63;6246444;22;20007;-94
2022/10/12 03:17:13;;;;;;;15.68;2.97;;;;;;;15.53;100.00;98695.38;6246208;22;20008;-94
2022/10/12 03:19:39;;;;;;;14.52;2.95;;;;;;;16.23;100.00;98687.94;6248118;22;20015;-93
2022/10/12 03:22:04;;;;;;;14.38;3.50;;;;;;;16.18;100.00;98692.50;6247738;22;20417;-92
2022/10/12 03:24:30;;;;;;;17.63;3.65;;;;;;;16.47;100.00;98680.97;6247235;22;20456;-96
2022/10/12 03:26:55;;;;;;;13.45;3.30;;;;;;;16.25;100.00;98687.88;6246557;22;20026;-93
2022/10/12 03:29:21;;;;;;;15.25;3.13;;;;;;;16.74;100.00;98694.09;6246932;22;20039;-94
2022/10/12 03:31:46;;;;;;;14.00;3.53;;;;;;;16.36;100.00;98691.88;6273176;22;20070;-93
2022/10/12 03:34:12;;;;;;;13.48;3.05;;;;;;;16.58;100.00;98685.03;6272931;22;20422;-94
2022/10/12 03:36:37;;;;;;;12.77;3.03;;;;;;;17.22;100.00;98692.41;6245825;22;20007;-93
2022/10/12 03:39:02;;;;;;;16.33;4.38;;;;;;;16.77;100.00;98682.59;6245491;22;20014;-94
2022/10/12 03:41:28;;;;;;;15.25;3.25;;;;;;;16.67;100.00;98685.56;6245606;22;20258;-93
2022/10/12 03:44:00;;;;;;;15.35;2.95;;;;;;;16.71;100.00;98684.56;6273777;22;20434;-93
2022/10/12 03:46:26;;;;;;;16.33;3.00;;;;;;;16.64;100.00;98680.38;6246046;22;20442;-93
2022/10/12 03:48:51;;;;;;;11.95;2.63;;;;;;;15.42;100.00;98673.81;6245869;22;20016;-93
2022/10/12 03:51:16;;;;;;;13.43;2.60;;;;;;;14.73;100.00;98681.03;6245063;22;20528;-94
2022/10/12 03:53:42;;;;;;;13.05;3.20;;;;;;;14.22;100.00;98671.81;6246447;22;20073;-94
2022/10/12 03:56:09;;;;;;;14.68;2.90;;;;;;;15.57;100.00;98663.72;6245295;22;20049;-92
2022/10/12 03:58:34;;;;;;;14.82;3.08;;;;;;;11.66;100.00;98664.63;6246824;22;20008;-93
2022/10/12 04:00:59;;;;;;;10.55;2.75;;;;;;;11.54;100.00;98668.31;6243583;23;20349;-93
2022/10/12 04:03:25;;;;;;;14.40;3.00;;;;;;;13.75;100.00;98665.09;6241978;23;20012;-94
2022/10/12 04:05:58;;;;;;;12.38;2.65;;;;;;;12.21;100.00;98663.78;6242314;23;20086;-93
2022/10/12 04:08:25;;;;;;;13.90;2.83;;;;;;;11.80;100.00;98678.34;6244131;23;20008;-94
2022/10/12 04:10:51;;;;;;;12.43;2.83;;;;;;;12.00;100.00;98669.38;6242344;23;20086;-94
2022/10/12 04:13:18;;;;;;;11.60;2.38;;;;;;;12.18;100.00;98676.03;6243308;23;20038;-94
2022/10/12 04:15:45;;;;;;;10.00;2.42;;;;;;;12.36;100.00;98678.34;6242758;23;20334;-94
2022/10/12 04:18:11;;;;;;;13.05;2.35;;;;;;;16.21;100.00;98671.34;6242694;23;20071;-93
2022/10/12 04:20:37;;;;;;;14.52;2.40;;;;;;;12.90;100.00;98674.75;6243343;23;20025;-93
2022/10/12 04:23:02;;;;;;;11.75;2.28;;;;;;;12.71;100.00;98663.75;6243926;23;20437;-94
2022/10/12 04:25:28;;;;;;;9.10;2.47;;;;;;;16.39;100.00;98661.97;6241578;23;20055;-94
2022/10/12 04:27:53;;;;;;;9.45;2.13;;;;;;;13.08;100.00;98675.25;6243082;23;20656;-93
2022/10/12 04:30:18;;;;;;;13.52;2.28;;;;;;;15.21;100.00;98661.28;6243048;23;20083;-94
2022/10/12 04:32:44;;;;;;;13.13;2.65;;;;;;;11.83;100.00;98674.81;6243585;23;20003;-93
2022/10/12 04:35:10;;;;;;;9.23;2.65;;;;;;;12.10;100.00;98678.78;6243339;23;20007;-96
2022/10/12 04:37:35;;;;;;;14.13;2.72;;;;;;;15.95;100.00;98669.56;6244060;23;20406;-93
2022/10/12 04:40:02;;;;;;;13.05;2.67;;;;;;;13.30;100.00;98671.31;6244310;23;20022;-93
2022/10/12 04:42:27;;;;;;;12.60;2.92;;;;;;;13.00;100.00;98670.19;6244635;23;20019;-94
2022/10/12 04:44:52;;;;;;;11.77;2.45;;;;;;;12.49;100.00;98675.53;6242492;23;20008;-94
2022/10/12 04:47:18;;;;;;;11.98;2.60;;;;;;;12.15;100.00;98668.25;6243519;23;20004;-94
2022/10/12 04:49:43;;;;;;;12.52;2.58;;;;;;;12.49;100.00;98665.06;6243719;23;20078;-96
2022/10/12 04:52:09;;;;;;;14.52;2.95;;;;;;;12.55;100.00;98660.56;6244353;23;20008;-94
2022/10/12 04:54:34;;;;;;;14.57;2.25;;;;;;;12.55;100.00;98659.69;6245565;23;20004;-94
2022/10/12 04:56:59;;;;;;;12.98;3.00;;;;;;;12.13;100.00;98657.81;6243286;23;20046;-93
2022/10/12 04:59:25;;;;;;;10.57;2.63;;;;;;;13.08;100.00;98649.06;6244304;23;20491;-94
2022/10/12 05:01:50;;;;;;;10.43;2.67;;;;;;;12.74;100.00;98657.59;6242562;23;20072;-94
2022/10/12 05:04:16;;;;;;;14.95;2.53;;;;;;;15.46;100.00;98636.00;6243005;23;20430;-94
2022/10/12 05:06:41;;;;;;;12.13;2.83;;;;;;;14.68;100.00;98632.16;6242803;23;20512;-94
2022/10/12 05:09:07;;;;;;;15.27;2.90;;;;;;;14.54;100.00;98636.88;6242279;23;20000;-94
2022/10/12 05:11:32;;;;;;;17.30;2.88;;;;;;;13.41;100.00;98625.69;6242180;23;20016;-94
2022/10/12 05:13:59;;;;;;;12.70;2.25;;;;;;;14.10;100.00;98631.03;6241976;23;20585;-94
2022/10/12 05:16:24;;;;;;;15.90;3.40;;;;;;;15.04;100.00;98623.25;6242439;23;20054;-94
2022/10/12 05:18:49;;;;;;;14.23;2.63;;;;;;;15.33;100.00;98629.41;6241933;23;20000;-93
2022/10/12 05:21:15;;;;;;;14.75;3.03;;;;;;;15.46;100.00;98638.63;6243533;23;20000;-94
2022/10/12 05:23:40;;;;;;;11.20;2.70;;;;;;;14.50;100.00;98637.84;6244066;23;20008;-93
2022/10/12 05:26:06;;;;;;;11.50;2.50;;;;;;;14.00;100.00;98636.50;6242378;23;20030;-95
2022/10/12 05:28:39;;;;;;;9.20;2.75;;;;;;;13.69;100.00;98638.16;6244720;23;20039;-95
2022/10/12 05:31:04;;;;;;;;;;;;;;;14.36;100.00;98630.34;6243097;23;20035;-94
2022/10/12 05:33:30;;;;;;;10.60;2.55;;;;;;;14.47;100.00;98616.94;6268407;22;19904;-91
2022/10/12 05:35:56;;;;;;;11.55;2.75;;;;;;;14.05;100.00;98610.16;6241775;23;20107;-93
2022/10/12 05:38:22;;;;;;;18.48;2.90;;;;;;;14.10;100.00;98613.53;6242781;23;20363;-94
2022/10/12 05:40:47;;;;;;;15.15;3.05;;;;;;;13.98;100.00;98606.84;6243268;23;20015;-94
2022/10/12 05:43:13;;;;;;;12.57;3.05;;;;;;;14.55;100.00;98614.13;6243136;23;20446;-95
2022/10/12 05:45:47;;;;;;;11.52;2.78;;;;;;;14.90;100.00;98607.88;6242960;23;20008;-94
2022/10/12 05:48:13;;;;;;;10.70;3.17;;;;;;;20.29;100.00;98593.56;6244160;23;20008;-96
2022/10/12 05:50:41;;;;;;;16.27;2.45;;;;;;;22.59;100.00;98607.38;6243760;23;20000;-94
2022/10/12 05:53:07;;;;;;;20.38;3.05;;;;;;;23.26;100.00;98598.81;6242610;23;20023;-93
2022/10/12 05:55:32;;;;;;;14.75;3.03;;;;;;;22.92;100.00;98597.41;6241499;23;20008;-96
2022/10/12 05:57:57;;;;;;;17.23;2.92;;;;;;;24.00;94.85;98606.50;6242444;23;20050;-94
2022/10/12 06:00:25;;;;;;;12.70;2.92;;;;;;;22.09;100.00;98608.56;6242398;23;20078;-96
2022/10/12 06:02:55;;;;;;;13.95;3.55;;;;;;;17.89;100.00;98614.22;6243098;23;20342;-96
2022/10/12 06:05:20;;;;;;;14.93;3.05;;;;;;;19.40;100.00;98604.97;6244052;23;20434;-94
2022/10/12 06:07:45;;;;;;;10.68;2.75;;;;;;;22.48;100.00;98610.66;6243385;23;20004;-93
2022/10/12 06:10:11;;;;;;;13.32;3.88;;;;;;;21.23;100.00;98608.97;6242978;23;20019;-94
2022/10/12 06:12:37;;;;;;;12.55;2.88;;;;;;;17.06;100.00;98613.94;6243346;23;20004;-95
2022/10/12 06:15:03;;;;;;;13.88;2.90;;;;;;;14.54;100.00;98618.50;6242898;23;20007;-95
2022/10/12 06:17:28;;;;;;;11.48;3.03;;;;;;;21.23;100.00;98607.16;6243364;23;20012;-95
2022/10/12 06:19:53;;;;;;;17.30;3.17;;;;;;;20.78;100.00;98614.03;6242139;23;20004;-96
2022/10/12 06:22:19;;;;;;;12.10;2.80;;;;;;;16.05;100.00;98615.75;6242943;23;20027;-94
2022/10/12 06:24:44;;;;;;;9.88;2.85;;;;;;;16.73;100.00;98616.88;6242641;23;20016;-94
2022/10/12 06:27:09;;;;;;;17.88;3.55;;;;;;;16.42;100.00;98616.25;6243224;23;20012;-94
2022/10/12 06:29:37;;;;;;;15.35;3.00;;;;;;;16.00;100.00;98620.31;6243587;23;20477;-95
2022/10/12 06:32:02;;;;;;;11.27;3.28;;;;;;;16.40;100.00;98602.31;6242277;23;20019;-96
2022/10/12 06:34:28;;;;;;;13.18;2.92;;;;;;;20.70;100.00;98590.59;6240167;23;20004;-96
2022/10/12 06:36:53;;;;;;;15.50;3.35;;;;;;;21.75;100.00;98595.47;6241450;23;20604;-96
2022/10/12 06:39:19;;;;;;;11.75;2.92;;;;;;;20.43;100.00;98588.44;6242775;23;20003;-95
2022/10/12 06:41:45;;;;;;;16.92;3.50;;;;;;;20.17;100.00;98592.41;6244126;23;20011;-96
2022/10/12 06:44:10;;;;;;;12.90;3.15;;;;;;;19.83;100.00;98590.59;6243447;23;20020;-96
2022/10/12 06:46:36;;;;;;;11.68;3.40;;;;;;;19.58;100.00;98573.25;6243677;23;20000;-96
2022/10/12 06:49:02;;;;;;;17.92;4.53;;;;;;;18.93;100.00;98576.34;6243116;23;20016;-95
2022/10/12 06:51:27;;;;;;;16.95;3.60;;;;;;;18.85;100.00;98574.00;6241749;23;20390;-96
2022/10/12 06:53:56;;;;;;;13.18;2.90;;;;;;;18.08;100.00;98570.34;6243696;23;20039;-94
2022/10/12 06:56:21;;;;;;;15.23;3.42;;;;;;;17.27;100.00;98569.25;6242160;23;20038;-96
2022/10/12 06:58:47;;;;;;;15.68;3.25;;;;;;;19.38;100.00;98553.06;6242283;23;20012;-95
2022/10/12 07:01:12;;;;;;;11.32;2.90;;;;;;;19.54;100.00;98561.09;6244377;23;20024;-95
2022/10/12 07:03:38;;;;;;;17.80;3.40;;;;;;;19.16;100.00;98540.03;6243942;23;20837;-96
2022/10/12 07:06:08;;;;;;;17.15;3.30;;;;;;;17.84;100.00;98537.03;6245191;23;20004;-96
2022/10/12 07:08:53;;;;;;;15.75;3.55;;;;;;;19.39;100.00;98542.44;6244664;23;20008;-96
2022/10/12 07:11:18;;;;;;;11.85;3.53;;;;;;;19.97;100.00;98537.81;6243847;23;20011;-96
2022/10/12 07:13:44;;;;;;;10.93;2.85;;;;;;;20.35;100.00;98532.34;6244951;23;20243;-96
2022/10/12 07:16:09;;;;;;;14.90;3.40;;;;;;;17.94;100.00;98537.53;6244507;23;20486;-96
2022/10/12 07:18:40;;;;;;;17.75;3.50;;;;;;;17.49;100.00;98534.09;6246095;23;20063;-96
2022/10/12 07:21:11;;;;;;;14.65;3.80;;;;;;;19.87;100.00;98518.06;6246131;23;20009;-96
2022/10/12 07:23:37;;;;;;;12.10;3.22;;;;;;;17.46;100.00;98536.88;6244896;23;20035;-96
2022/10/12 07:26:03;;;;;;;14.07;3.80;;;;;;;20.33;100.00;98526.25;6244266;23;20043;-96
2022/10/12 07:28:28;;;;;;;15.27;3.95;;;;;;;18.45;100.00;98532.69;6245530;23;20229;-96
2022/10/12 07:30:58;;;;;;;19.17;3.90;;;;;;;20.22;100.00;98526.84;6246937;23;20362;-96
2022/10/12 07:33:24;;;;;;;14.50;3.55;;;;;;;20.63;100.00;98520.28;6244729;23;20011;-96
2022/10/12 07:35:54;;;;;;;12.25;3.20;;;;;;;20.17;100.00;98506.84;6245656;23;20415;-96
2022/10/12 07:38:19;;;;;;;12.95;3.55;;;;;;;23.75;99.67;98514.06;6244425;23;20051;-96
2022/10/12 07:41:02;;;;;;;12.07;3.38;;;;;;;21.93;100.00;98518.31;6244380;23;20004;-94
2022/10/12 07:43:29;;;;;;;17.42;4.25;;;;;;;22.65;98.63;98515.75;6247047;23;20022;-96
2022/10/12 07:45:55;;;;;;;15.85;3.38;;;;;;;21.70;100.00;98512.59;6245557;23;20024;-96
2022/10/12 07:48:21;;;;;;;15.38;3.72;;;;;;;21.54;100.00;98517.06;6244324;23;20008;-96
2022/10/12 07:50:49;;;;;;;14.95;3.70;;;;;;;17.32;100.00;98514.53;6242775;23;20015;-96
2022/10/12 07:53:16;;;;;;;19.05;4.13;;;;;;;17.60;100.00;98512.56;6244679;23;20012;-96
2022/10/12 07:55:41;;;;;;;13.68;3.95;;;;;;;17.51;100.00;98524.38;6240585;23;20014;-96
2022/10/12 07:58:14;;;;;;;13.93;3.95;;;;;;;16.32;100.00;98516.56;6244939;23;20091;-96
2022/10/12 08:00:39;;;;;;;16.25;4.13;;;;;;;20.17;100.00;98528.03;6242782;22;20032;-96
2022/10/12 08:03:04;;;;;;;17.52;3.78;;;;;;;18.91;100.00;98525.31;6247845;22;20034;-95
2022/10/12 08:05:31;;;;;;;18.92;4.07;;;;;;;19.50;100.00;98538.38;6246522;22;20003;-95
2022/10/12 08:07:58;;;;;;;13.93;3.88;;;;;;;18.67;100.00;98535.22;6247276;22;20798;-96
2022/10/12 08:10:24;;;;;;;14.57;3.85;;;;;;;18.93;100.00;98539.34;6247588;22;20340;-96
2022/10/12 08:12:51;;;;;;;13.02;3.25;;;;;;;19.21;100.00;98551.25;6254674;22;20007;-96
2022/10/12 08:15:17;;;;;;;16.92;3.67;;;;;;;19.22;100.00;98552.94;6253749;22;20429;-92
2022/10/12 08:17:50;;;;;;;13.90;3.72;;;;;;;19.98;100.00;98546.66;6261413;22;19992;-96
2022/10/12 08:20:16;;;;;;;14.80;3.67;;;;;;;21.31;100.00;98529.84;6261567;22;20015;-96
2022/10/12 08:22:42;;;;;;;15.27;4.32;;;;;;;21.16;100.00;98542.16;6233398;22;20012;-96
2022/10/12 08:25:09;;;;;;;17.75;4.45;;;;;;;18.84;100.00;98552.94;6250984;22;20039;-96
2022/10/12 08:27:37;;;;;;;18.17;3.95;;;;;;;19.68;100.00;98553.38;6251597;22;20016;-95
2022/10/12 08:30:04;;;;;;;18.73;3.83;;;;;;;20.79;100.00;98557.41;6246283;22;20261;-96
2022/10/12 08:32:46;;;;;;;11.02;3.28;;;;;;;18.25;100.00;98563.47;6245015;22;20043;-94
2022/10/12 08:35:11;;;;;;;15.77;3.60;;;;;;;20.49;100.00;98558.09;6240874;22;20015;-96
2022/10/12 08:37:37;;;;;;;13.88;4.15;;;;;;;21.40;100.00;98558.47;6251309;22;20050;-94
2022/10/12 08:40:03;;;;;;;17.45;3.97;;;;;;;20.63;100.00;98568.81;6252349;22;20046;-94
2022/10/12 08:42:39;;;;;;;16.08;3.75;;;;;;;21.99;100.00;98563.13;6247497;22;20004;-95
2022/10/12 08:45:42;;;;;;;20.00;5.20;;;;;;;20.49;100.00;98560.75;6247748;22;20091;-94
2022/10/12 08:48:26;;;;;;;17.27;3.80;;;;;;;16.89;100.00;98555.75;6255403;22;20087;-96
2022/10/12 08:51:04;;;;;;;11.00;3.90;;;;;;;19.20;100.00;98544.25;6282164;22;19999;-96
2022/10/12 08:53:51;;;;;;;19.77;4.72;;;;;;;18.18;100.00;98552.31;6283888;22;20007;-96
2022/10/12 08:56:20;;;;;;;19.73;4.35;;;;;;;21.71;100.00;98530.22;6258016;22;20011;-95
2022/10/12 08:58:51;;;;;;;16.10;4.28;;;;;;;19.55;100.00;98536.38;6253004;22;20006;-96
2022/10/12 09:01:29;;;;;;;13.48;4.20;;;;;;;19.00;100.00;98545.16;6245504;23;20024;-96
2022/10/12 09:04:10;;;;;;;16.58;3.95;;;;;;;18.96;100.00;98544.47;6247748;23;20008;-96
2022/10/12 09:06:49;;;;;;;15.38;4.72;;;;;;;23.69;100.00;98539.28;6254619;23;19984;-96
2022/10/12 09:09:34;;;;;;;16.13;4.00;;;;;;;19.68;100.00;98547.19;6251228;23;20019;-96
2022/10/12 09:12:44;;;;;;;13.85;3.75;;;;;;;19.88;100.00;98548.91;6251987;23;20330;-96
2022/10/12 09:15:16;;;;;;;15.27;4.30;;;;;;;19.25;100.00;98547.53;6250010;23;20004;-96
2022/10/12 09:17:48;;;;;;;19.77;4.20;;;;;;;23.29;100.00;98536.56;6248652;23;20004;-94
2022/10/12 09:20:30;;;;;;;15.48;4.10;;;;;;;23.69;100.00;98550.78;6248813;23;20000;-96
2022/10/12 09:23:02;;;;;;;20.17;4.85;;;;;;;23.07;100.00;98531.75;6246141;23;20008;-92
2022/10/12 09:25:28;;;;;;;18.50;4.03;;;;;;;23.01;100.00;98533.84;6250544;23;20087;-96
2022/10/12 09:28:05;;;;;;;16.33;4.13;;;;;;;22.40;100.00;98530.56;6248004;23;20020;-96
2022/10/12 09:30:44;;;;;;;12.82;4.45;;;;;;;23.40;100.00;98522.56;6252780;23;20339;-96
2022/10/12 09:33:50;;;;;;;16.58;4.10;;;;;;;23.55;100.00;98539.31;6255539;23;20022;-96
2022/10/12 09:36:26;;;;;;;14.57;4.30;;;;;;;23.31;100.00;98530.19;6256752;23;20001;-96
2022/10/12 09:39:09;;;;;;;13.38;4.03;;;;;;;24.16;99.39;98532.56;6230320;23;20091;-96
2022/10/12 09:41:43;;;;;;;14.40;4.73;;;;;;;23.47;100.00;98529.19;6264620;23;20012;-96
2022/10/12 09:44:39;;;;;;;17.13;4.32;;;;;;;24.37;98.04;98535.56;6258270;22;21059;-96
2022/10/12 09:47:25;;;;;;;19.95;4.20;;;;;;;24.23;99.28;98533.00;6248817;23;20006;-96
2022/10/12 09:49:52;;;;;;;15.75;4.45;;;;;;;24.94;96.45;98537.88;6247862;23;20011;-96
2022/10/12 09:52:42;;;;;;;18.17;4.97;;;;;;;22.89;98.86;98523.13;6246439;23;20007;-96
2022/10/12 09:55:13;;;;;;;11.07;4.32;;;;;;;21.15;100.00;98540.44;6252336;23;20260;-96
2022/10/12 09:57:42;;;;;;;16.45;4.35;;;;;;;21.91;100.00;98514.91;6249900;23;20012;-95
2022/10/12 10:00:24;;;;;;;16.17;4.38;;;;;;;21.98;100.00;98522.41;6252916;23;20016;-96
2022/10/12 10:02:56;;;;;;;16.45;4.30;;;;;;;21.76;100.00;98524.63;6250376;23;20107;-96
2022/10/12 10:05:26;;;;;;;16.73;4.22;;;;;;;22.55;100.00;98526.13;6248893;23;20000;-96
2022/10/12 10:08:17;;;;;;;17.08;4.00;;;;;;;23.53;100.00;98494.16;6254255;23;20010;-96
2022/10/12 10:10:57;;;;;;;12.82;3.30;;;;;;;22.71;100.00;98496.75;6237577;23;20066;-96
2022/10/12 10:13:34;;;;;;;15.63;4.05;;;;;;;23.50;100.00;98486.41;6248271;23;20023;-96
2022/10/12 10:16:10;;;;;;;17.10;3.65;;;;;;;22.52;100.00;98493.53;6247143;23;20008;-96
2022/10/12 10:18:54;;;;;;;15.02;4.20;;;;;;;22.30;100.00;98497.50;6244749;23;20091;-96
2022/10/12 10:21:47;;;;;;;15.35;3.83;;;;;;;20.29;100.00;98479.69;6245134;23;20039;-95
2022/10/12 10:24:29;;;;;;;13.90;3.97;;;;;;;21.65;100.00;98464.22;6236304;23;20095;-96
2022/10/12 10:27:03;;;;;;;15.98;3.95;;;;;;;22.79;100.00;98464.38;6246820;23;20008;-95
2022/10/12 10:29:42;;;;;;;15.98;3.88;;;;;;;22.66;100.00;98466.97;6246206;23;20016;-95
2022/10/12 10:32:32;;;;;;;17.67;4.32;;;;;;;23.23;100.00;98454.47;6245480;23;20018;-96
2022/10/12 10:35:06;;;;;;;13.85;4.57;;;;;;;23.29;100.00;98441.63;6245047;23;20007;-96
2022/10/12 10:37:32;;;;;;;17.88;3.97;;;;;;;22.20;100.00;98438.78;6244905;23;20496;-94
2022/10/12 10:39:59;;;;;;;16.00;4.20;;;;;;;21.81;100.00;98446.44;6243594;23;20028;-93
2022/10/12 10:42:31;;;;;;;13.13;3.60;;;;;;;22.50;100.00;98438.72;6244745;23;20004;-94
2022/10/12 10:45:05;;;;;;;11.68;3.97;;;;;;;21.12;100.00;98453.09;6244796;23;20338;-94
2022/10/12 10:47:42;;;;;;;13.98;3.78;;;;;;;19.28;100.00;98449.56;6244792;23;20047;-96
2022/10/12 10:50:34;;;;;;;17.02;3.70;;;;;;;18.20;100.00;98429.03;6245719;23;20083;-95
2022/10/12 10:53:18;;;;;;;13.55;3.65;;;;;;;20.43;100.00;98442.75;6244909;23;20600;-96
2022/10/12 10:55:49;;;;;;;13.20;4.05;;;;;;;20.42;100.00;98437.53;6246909;23;20385;-95
2022/10/12 10:58:42;;;;;;;16.90;3.60;;;;;;;20.00;100.00;98438.88;6242505;23;20136;-96
2022/10/12 11:01:28;;;;;;;12.40;3.15;;;;;;;19.36;100.00;98430.66;6244799;23;20024;-95
2022/10/12 11:04:01;;;;;;;12.77;3.20;;;;;;;19.56;100.00;98417.28;6246459;23;20104;-96
2022/10/12 11:06:40;;;;;;;14.45;3.20;;;;;;;19.88;100.00;98448.34;6247362;23;20086;-95
2022/10/12 11:09:28;;;;;;;10.57;3.10;;;;;;;19.46;100.00;98437.19;6244902;23;20008;-95
2022/10/12 11:12:18;;;;;;;13.35;2.97;;;;;;;18.67;100.00;98459.47;6246067;23;20030;-95
2022/10/12 11:15:07;;;;;;;13.23;3.05;;;;;;;21.57;100.00;98438.16;6251614;23;20446;-94
2022/10/12 11:17:45;;;;;;;12.20;3.50;;;;;;;21.39;100.00;98440.06;6247444;23;20126;-96
2022/10/12 11:20:24;;;;;;;14.77;3.92;;;;;;;21.43;100.00;98433.63;6245147;23;20019;-96
2022/10/12 11:22:57;;;;;;;13.38;3.60;;;;;;;20.84;100.00;98451.19;6247784;23;20431;-96
2022/10/12 11:25:24;;;;;;;;;;;;;;;22.23;100.00;98430.63;6245979;23;20011;-95
2022/10/12 11:27:50;;;;;;;13.70;3.50;;;;;;;19.98;100.00;98431.03;6244466;23;19903;-96
2022/10/12 11:30:19;;;;;;;15.10;3.78;;;;;;;20.01;100.00;98433.50;6245718;23;20079;-95
2022/10/12 11:32:57;;;;;;;15.10;3.70;;;;;;;22.54;100.00;98422.56;6249414;23;20004;-95
2022/10/12 11:35:29;;;;;;;11.73;3.28;;;;;;;23.72;100.00;98426.41;6249889;23;20555;-96
2022/10/12 11:38:07;;;;;;;18.77;3.80;;;;;;;23.62;100.00;98436.78;6247024;23;20015;-96